Riceton, Canada
Current Conditions -  °F | °C
As of 2:00 AM on Wednesday 22 Oct 2014 (Local Time) from CYQR Reporting Station
Broken Clouds Broken Clouds  
Wind Chill: 10°   Ceiling: 14000
Heat Index: 10°   Visibility: 15mi
Dew Point:   Wind: 6mph
Humidity: 76%   Direction: 290°WNW
Pressure: 29.59"   Gusts: NA
Location:  50.1°N, 104.32°W
Report Text: CYQR 220800Z 29005KT 200V300 15SM BKN140 10/06 A2959 RMK AC7 PRESFR SLP024 DENSITY ALT 2100FT
Loading
Personal Weather Stations






























Interactive Weather Map
Tropical Storm Tracking
New forecast layout! Learn more

10-Day Weather Forecast

Advertisements
Track Severe Weather on mobile